sensor_id;sensor_type;location;lat;lon;timestamp;pressure;altitude;pressure_sealevel;temperature;humidity
54546;BME280;40444;45.184;9.850;2023-02-24T00:00:27;100832.50;;;8.08;100.00
54546;BME280;40444;45.184;9.850;2023-02-24T00:03:05;100831.78;;;8.06;100.00
54546;BME280;40444;45.184;9.850;2023-02-24T00:05:38;100833.63;;;8.05;100.00
54546;BME280;40444;45.184;9.850;2023-02-24T00:08:07;100836.63;;;8.01;100.00
54546;BME280;40444;45.184;9.850;2023-02-24T00:10:35;100836.56;;;7.90;100.00
54546;BME280;40444;45.184;9.850;2023-02-24T00:13:04;100839.47;;;7.87;100.00
54546;BME280;40444;45.184;9.850;2023-02-24T00:15:33;100833.56;;;7.70;100.00
54546;BME280;40444;45.184;9.850;2023-02-24T00:18:01;100825.28;;;7.62;100.00
54546;BME280;40444;45.184;9.850;2023-02-24T00:20:34;100824.72;;;7.70;100.00
54546;BME280;40444;45.184;9.850;2023-02-24T00:23:03;100821.59;;;7.76;100.00
54546;BME280;40444;45.184;9.850;2023-02-24T00:25:31;100820.31;;;7.81;100.00
54546;BME280;40444;45.184;9.850;2023-02-24T00:27:59;100829.75;;;7.85;100.00
54546;BME280;40444;45.184;9.850;2023-02-24T00:30:28;100831.34;;;7.88;100.00
54546;BME280;40444;45.184;9.850;2023-02-24T00:32:59;100835.00;;;7.87;100.00
54546;BME280;40444;45.184;9.850;2023-02-24T00:35:30;100835.09;;;7.85;100.00
54546;BME280;40444;45.184;9.850;2023-02-24T00:37:59;100833.09;;;7.76;100.00
54546;BME280;40444;45.184;9.850;2023-02-24T00:40:28;100832.84;;;7.68;100.00
54546;BME280;40444;45.184;9.850;2023-02-24T00:42:59;100833.41;;;7.60;100.00
54546;BME280;40444;45.184;9.850;2023-02-24T00:45:27;100831.94;;;7.56;100.00
54546;BME280;40444;45.184;9.850;2023-02-24T00:47:58;100832.03;;;7.55;100.00
54546;BME280;40444;45.184;9.850;2023-02-24T00:50:26;100827.78;;;7.52;100.00
54546;BME280;40444;45.184;9.850;2023-02-24T00:52:55;100832.03;;;7.55;100.00
54546;BME280;40444;45.184;9.850;2023-02-24T00:55:24;100825.75;;;7.56;100.00
54546;BME280;40444;45.184;9.850;2023-02-24T00:57:55;100821.13;;;7.58;100.00
54546;BME280;40444;45.184;9.850;2023-02-24T01:00:23;100824.66;;;7.58;100.00
54546;BME280;40444;45.184;9.850;2023-02-24T01:02:52;100821.03;;;7.59;100.00
54546;BME280;40444;45.184;9.850;2023-02-24T01:05:21;100817.53;;;7.59;100.00
54546;BME280;40444;45.184;9.850;2023-02-24T01:07:49;100822.75;;;7.60;100.00
54546;BME280;40444;45.184;9.850;2023-02-24T01:10:21;100823.72;;;7.59;100.00
54546;BME280;40444;45.184;9.850;2023-02-24T01:12:50;100819.94;;;7.62;100.00
54546;BME280;40444;45.184;9.850;2023-02-24T01:15:21;100818.88;;;7.65;100.00
54546;BME280;40444;45.184;9.850;2023-02-24T01:17:49;100817.06;;;7.65;100.00
54546;BME280;40444;45.184;9.850;2023-02-24T01:20:18;100814.53;;;7.64;100.00
54546;BME280;40444;45.184;9.850;2023-02-24T01:22:50;100808.44;;;7.62;100.00
54546;BME280;40444;45.184;9.850;2023-02-24T01:25:21;100799.59;;;7.61;100.00
54546;BME280;40444;45.184;9.850;2023-02-24T01:27:49;100805.88;;;7.60;100.00
54546;BME280;40444;45.184;9.850;2023-02-24T01:30:19;100805.88;;;7.60;100.00
54546;BME280;40444;45.184;9.850;2023-02-24T01:32:48;100804.06;;;7.60;100.00
54546;BME280;40444;45.184;9.850;2023-02-24T01:35:16;100807.47;;;7.63;100.00
54546;BME280;40444;45.184;9.850;2023-02-24T01:37:45;100797.53;;;7.65;100.00
54546;BME280;40444;45.184;9.850;2023-02-24T01:40:14;100800.94;;;7.67;100.00
54546;BME280;40444;45.184;9.850;2023-02-24T01:42:48;100805.31;;;7.68;100.00
54546;BME280;40444;45.184;9.850;2023-02-24T01:45:28;100801.91;;;7.66;100.00
54546;BME280;40444;45.184;9.850;2023-02-24T01:47:59;100809.06;;;7.65;100.00
54546;BME280;40444;45.184;9.850;2023-02-24T01:50:31;100802.03;;;7.64;100.00
54546;BME280;40444;45.184;9.850;2023-02-24T01:53:05;100812.91;;;7.61;100.00
54546;BME280;40444;45.184;9.850;2023-02-24T01:55:47;100814.09;;;7.57;100.00
54546;BME280;40444;45.184;9.850;2023-02-24T01:58:25;100805.72;;;7.50;100.00
54546;BME280;40444;45.184;9.850;2023-02-24T02:00:55;100801.31;;;7.49;100.00
54546;BME280;40444;45.184;9.850;2023-02-24T02:03:34;100801.66;;;7.45;100.00
54546;BME280;40444;45.184;9.850;2023-02-24T02:06:09;100805.50;;;7.41;100.00
54546;BME280;40444;45.184;9.850;2023-02-24T02:08:40;100797.00;;;7.35;100.00
54546;BME280;40444;45.184;9.850;2023-02-24T02:11:12;100791.91;;;7.32;100.00
54546;BME280;40444;45.184;9.850;2023-02-24T02:13:43;100788.63;;;7.29;100.00
54546;BME280;40444;45.184;9.850;2023-02-24T02:22:03;100782.78;;;7.24;100.00
54546;BME280;40444;45.184;9.850;2023-02-24T02:30:10;100772.53;;;7.18;100.00
54546;BME280;40444;45.184;9.850;2023-02-24T02:32:46;100767.00;;;7.21;100.00
54546;BME280;40444;45.184;9.850;2023-02-24T02:35:34;100770.84;;;7.17;100.00
54546;BME280;40444;45.184;9.850;2023-02-24T02:38:14;100768.06;;;7.18;100.00
54546;BME280;40444;45.184;9.850;2023-02-24T02:43:45;100771.53;;;7.07;100.00
54546;BME280;40444;45.184;9.850;2023-02-24T02:46:35;100765.69;;;7.02;100.00
54546;BME280;40444;45.184;9.850;2023-02-24T02:51:51;100766.44;;;6.92;100.00
54546;BME280;40444;45.184;9.850;2023-02-24T02:54:42;100758.78;;;6.87;100.00
54546;BME280;40444;45.184;9.850;2023-02-24T02:57:25;100759.00;;;6.84;100.00
54546;BME280;40444;45.184;9.850;2023-02-24T03:00:13;100757.41;;;6.81;100.00
54546;BME280;40444;45.184;9.850;2023-02-24T03:02:53;100758.69;;;6.76;100.00
54546;BME280;40444;45.184;9.850;2023-02-24T03:05:27;100753.50;;;6.74;100.00
54546;BME280;40444;45.184;9.850;2023-02-24T03:07:58;100756.25;;;6.73;100.00
54546;BME280;40444;45.184;9.850;2023-02-24T03:10:29;100758.06;;;6.72;100.00
54546;BME280;40444;45.184;9.850;2023-02-24T03:13:05;100765.19;;;6.72;100.00
54546;BME280;40444;45.184;9.850;2023-02-24T03:15:36;100770.41;;;6.73;100.00
54546;BME280;40444;45.184;9.850;2023-02-24T03:18:14;100768.84;;;6.71;100.00
54546;BME280;40444;45.184;9.850;2023-02-24T03:20:49;100761.69;;;6.71;100.00
54546;BME280;40444;45.184;9.850;2023-02-24T03:23:22;100761.81;;;6.70;100.00
54546;BME280;40444;45.184;9.850;2023-02-24T03:34:13;100754.13;;;6.65;100.00
54546;BME280;40444;45.184;9.850;2023-02-24T03:36:43;100755.84;;;6.66;100.00
54546;BME280;40444;45.184;9.850;2023-02-24T03:39:12;100751.38;;;6.67;100.00
54546;BME280;40444;45.184;9.850;2023-02-24T03:42:01;100743.91;;;6.59;100.00
54546;BME280;40444;45.184;9.850;2023-02-24T03:44:33;100744.69;;;6.48;100.00
54546;BME280;40444;45.184;9.850;2023-02-24T03:47:02;100741.25;;;6.33;100.00
54546;BME280;40444;45.184;9.850;2023-02-24T03:49:31;100742.22;;;6.07;100.00
54546;BME280;40444;45.184;9.850;2023-02-24T03:52:05;100742.63;;;6.01;100.00
54546;BME280;40444;45.184;9.850;2023-02-24T03:54:59;100731.16;;;6.00;100.00
54546;BME280;40444;45.184;9.850;2023-02-24T04:00:43;100736.03;;;6.06;100.00
54546;BME280;40444;45.184;9.850;2023-02-24T04:09:31;100733.72;;;6.27;100.00
54546;BME280;40444;45.184;9.850;2023-02-24T04:15:20;100728.47;;;6.51;100.00
54546;BME280;40444;45.184;9.850;2023-02-24T04:17:56;100730.72;;;6.57;100.00
54546;BME280;40444;45.184;9.850;2023-02-24T04:20:31;100736.03;;;6.57;100.00
54546;BME280;40444;45.184;9.850;2023-02-24T04:23:17;100734.09;;;6.59;100.00
54546;BME280;40444;45.184;9.850;2023-02-24T04:25:51;100727.72;;;6.62;100.00
54546;BME280;40444;45.184;9.850;2023-02-24T04:28:20;100731.25;;;6.63;100.00
54546;BME280;40444;45.184;9.850;2023-02-24T04:30:55;100741.03;;;6.62;100.00
54546;BME280;40444;45.184;9.850;2023-02-24T04:33:25;100743.06;;;6.58;100.00
54546;BME280;40444;45.184;9.850;2023-02-24T04:35:53;100730.81;;;6.56;100.00
54546;BME280;40444;45.184;9.850;2023-02-24T04:38:23;100736.13;;;6.56;100.00
54546;BME280;40444;45.184;9.850;2023-02-24T04:40:53;100730.94;;;6.54;100.00
54546;BME280;40444;45.184;9.850;2023-02-24T04:43:21;100724.88;;;6.52;100.00
54546;BME280;40444;45.184;9.850;2023-02-24T04:45:50;100724.13;;;6.50;100.00
54546;BME280;40444;45.184;9.850;2023-02-24T04:48:22;100718.91;;;6.49;100.00
54546;BME280;40444;45.184;9.850;2023-02-24T04:50:51;100716.97;;;6.51;100.00
54546;BME280;40444;45.184;9.850;2023-02-24T04:53:21;100715.28;;;6.50;100.00
54546;BME280;40444;45.184;9.850;2023-02-24T04:55:55;100718.69;;;6.52;100.00
54546;BME280;40444;45.184;9.850;2023-02-24T04:58:25;100719.44;;;6.54;100.00
54546;BME280;40444;45.184;9.850;2023-02-24T05:00:55;100720.91;;;6.58;100.00
54546;BME280;40444;45.184;9.850;2023-02-24T05:03:24;100709.19;;;6.61;100.00
54546;BME280;40444;45.184;9.850;2023-02-24T05:05:57;100716.00;;;6.65;100.00
54546;BME280;40444;45.184;9.850;2023-02-24T05:08:29;100709.59;;;6.67;100.00
54546;BME280;40444;45.184;9.850;2023-02-24T05:10:58;100708.56;;;6.70;100.00
54546;BME280;40444;45.184;9.850;2023-02-24T05:13:34;100705.78;;;6.71;100.00
54546;BME280;40444;45.184;9.850;2023-02-24T05:16:06;100702.91;;;6.74;100.00
54546;BME280;40444;45.184;9.850;2023-02-24T05:18:35;100690.31;;;6.76;100.00
54546;BME280;40444;45.184;9.850;2023-02-24T05:21:08;100688.38;;;6.78;100.00
54546;BME280;40444;45.184;9.850;2023-02-24T05:23:56;100692.75;;;6.79;100.00
54546;BME280;40444;45.184;9.850;2023-02-24T05:26:26;100686.34;;;6.82;100.00
54546;BME280;40444;45.184;9.850;2023-02-24T05:28:54;100682.63;;;6.84;100.00
54546;BME280;40444;45.184;9.850;2023-02-24T05:31:25;100672.69;;;6.87;100.00
54546;BME280;40444;45.184;9.850;2023-02-24T05:33:57;100676.97;;;6.89;100.00
54546;BME280;40444;45.184;9.850;2023-02-24T05:36:29;100681.19;;;6.92;100.00
54546;BME280;40444;45.184;9.850;2023-02-24T05:38:59;100683.75;;;6.93;100.00
54546;BME280;40444;45.184;9.850;2023-02-24T05:41:37;100686.31;;;6.95;100.00
54546;BME280;40444;45.184;9.850;2023-02-24T05:44:07;100681.59;;;6.98;100.00
